createdAt,value
2023-01-19T00:01:27.270Z,3.70
2023-01-19T00:03:54.732Z,3.70
2023-01-19T00:06:21.956Z,3.70
2023-01-19T00:08:52.262Z,3.70
2023-01-19T00:11:19.841Z,3.80
2023-01-19T00:13:50.739Z,3.80
2023-01-19T00:16:19.422Z,3.80
2023-01-19T00:18:47.505Z,3.80
2023-01-19T00:21:14.972Z,3.90
2023-01-19T00:23:43.827Z,3.80
2023-01-19T00:26:11.069Z,3.80
2023-01-19T00:28:38.460Z,3.90
2023-01-19T00:31:07.326Z,3.80
2023-01-19T00:33:35.096Z,3.80
2023-01-19T00:36:02.213Z,3.80
2023-01-19T00:38:29.819Z,3.80
2023-01-19T00:40:56.981Z,3.80
2023-01-19T00:43:24.365Z,3.90
2023-01-19T00:45:51.559Z,3.90
2023-01-19T00:48:19.178Z,3.90
2023-01-19T00:50:47.640Z,3.90
2023-01-19T00:53:15.114Z,3.90
2023-01-19T00:55:42.255Z,3.90
2023-01-19T00:58:09.941Z,3.80
2023-01-19T01:00:37.387Z,3.80
2023-01-19T01:03:05.325Z,3.80
2023-01-19T01:05:32.933Z,3.80
2023-01-19T01:08:00.446Z,3.90
2023-01-19T01:10:29.516Z,3.90
2023-01-19T01:13:23.746Z,3.90
2023-01-19T01:15:44.302Z,3.80
2023-01-19T01:18:11.697Z,3.90
2023-01-19T01:20:38.831Z,3.80
2023-01-19T01:23:06.250Z,3.80
2023-01-19T01:25:37.749Z,3.80
2023-01-19T01:28:08.695Z,3.90
2023-01-19T01:30:40.047Z,3.90
2023-01-19T01:33:08.285Z,3.90
2023-01-19T01:35:35.436Z,3.90
2023-01-19T01:38:02.982Z,3.90
2023-01-19T01:40:30.341Z,4.00
2023-01-19T01:42:58.093Z,3.90
2023-01-19T01:45:35.329Z,3.90
2023-01-19T01:48:12.626Z,4.00
2023-01-19T01:51:24.483Z,3.90
2023-01-19T01:54:06.801Z,3.80
2023-01-19T01:56:43.833Z,3.90
2023-01-19T01:59:39.222Z,3.80
2023-01-19T02:02:29.873Z,3.90
2023-01-19T02:05:05.896Z,3.90
2023-01-19T02:08:02.294Z,3.80
2023-01-19T02:10:48.486Z,3.70
2023-01-19T02:13:21.715Z,3.60
2023-01-19T02:15:52.339Z,3.50
2023-01-19T02:18:24.670Z,3.60
2023-01-19T02:20:57.888Z,3.50
2023-01-19T02:23:45.193Z,3.50
2023-01-19T02:26:22.189Z,3.40
2023-01-19T02:28:57.582Z,3.40
2023-01-19T02:31:27.261Z,3.40
2023-01-19T02:33:56.102Z,3.40
2023-01-19T02:36:27.258Z,3.50
2023-01-19T02:38:57.637Z,3.40
2023-01-19T02:41:29.057Z,3.40
2023-01-19T02:43:58.015Z,3.40
2023-01-19T02:46:25.886Z,3.40
2023-01-19T02:48:53.060Z,3.30
2023-01-19T02:51:24.115Z,3.20
2023-01-19T02:54:08.647Z,3.10
2023-01-19T02:56:51.008Z,3.00
2023-01-19T02:59:26.742Z,2.80
2023-01-19T03:02:24.650Z,2.70
2023-01-19T03:05:12.582Z,2.50
2023-01-19T03:07:53.276Z,2.40
2023-01-19T03:11:05.564Z,2.30
2023-01-19T03:13:54.031Z,2.20
2023-01-19T03:16:27.877Z,2.00
2023-01-19T03:19:01.705Z,1.90
2023-01-19T03:21:30.871Z,1.80
2023-01-19T03:24:03.067Z,1.80
2023-01-19T03:26:36.637Z,1.80
2023-01-19T03:29:06.986Z,1.80
2023-01-19T03:31:35.532Z,1.90
2023-01-19T03:34:07.995Z,1.90
2023-01-19T03:36:44.444Z,2.00
2023-01-19T03:39:15.699Z,2.10
2023-01-19T03:41:45.185Z,2.10
2023-01-19T03:44:13.728Z,2.10
2023-01-19T03:46:41.429Z,2.00
2023-01-19T03:49:09.965Z,2.10
2023-01-19T03:51:40.206Z,2.10
2023-01-19T03:54:09.628Z,2.20
2023-01-19T03:56:37.722Z,2.20
2023-01-19T03:59:08.058Z,2.30
2023-01-19T04:01:35.272Z,2.50
2023-01-19T04:04:02.736Z,2.60
2023-01-19T04:06:30.192Z,2.60
2023-01-19T04:08:57.627Z,2.70
2023-01-19T04:11:24.781Z,2.70
2023-01-19T04:13:52.206Z,2.70
2023-01-19T04:16:21.264Z,2.80
2023-01-19T04:18:49.514Z,2.80
2023-01-19T04:21:17.162Z,2.90
2023-01-19T04:23:46.008Z,2.90
2023-01-19T04:26:13.432Z,3.00
2023-01-19T04:28:41.110Z,3.10
2023-01-19T04:31:08.674Z,3.10
2023-01-19T04:33:36.132Z,3.10
2023-01-19T04:36:04.213Z,3.20
2023-01-19T04:38:31.668Z,3.20
2023-01-19T04:40:58.802Z,3.30
2023-01-19T04:43:26.272Z,3.30
2023-01-19T04:45:53.404Z,3.40
2023-01-19T04:48:20.868Z,3.50
2023-01-19T04:50:48.031Z,3.50
2023-01-19T04:53:16.550Z,3.50
2023-01-19T04:55:44.049Z,3.50
2023-01-19T04:58:11.425Z,3.50
2023-01-19T05:00:38.730Z,3.60
2023-01-19T05:03:06.447Z,3.50
2023-01-19T05:05:34.165Z,3.50
2023-01-19T05:08:01.761Z,3.50
2023-01-19T05:10:29.154Z,3.50
2023-01-19T05:12:57.019Z,3.60
2023-01-19T05:15:24.261Z,3.60
2023-01-19T05:17:52.944Z,3.60
2023-01-19T05:20:20.082Z,3.70
2023-01-19T05:22:51.624Z,3.60
2023-01-19T05:25:19.274Z,3.50
2023-01-19T05:27:46.845Z,3.40
2023-01-19T05:30:14.581Z,3.40
2023-01-19T05:32:42.080Z,3.40
2023-01-19T05:35:09.768Z,3.40
2023-01-19T05:37:37.192Z,3.30
2023-01-19T05:40:05.170Z,3.30
2023-01-19T05:42:33.016Z,3.30
2023-01-19T05:45:00.406Z,3.40
2023-01-19T05:47:30.055Z,3.30
2023-01-19T05:49:57.685Z,3.20
2023-01-19T05:52:25.262Z,3.30
2023-01-19T05:54:54.651Z,3.30
2023-01-19T05:57:23.007Z,3.30
2023-01-19T05:59:50.321Z,3.20
2023-01-19T06:02:18.147Z,3.20
2023-01-19T06:04:45.309Z,3.20
2023-01-19T06:07:12.725Z,3.20
2023-01-19T06:09:39.925Z,3.20
2023-01-19T06:12:07.495Z,3.20
2023-01-19T06:14:36.935Z,3.10
2023-01-19T06:17:06.170Z,3.10
2023-01-19T06:19:34.667Z,3.20
2023-01-19T06:22:02.829Z,3.20
2023-01-19T06:24:30.269Z,3.20
2023-01-19T06:26:57.641Z,3.20
2023-01-19T06:29:25.894Z,3.30
2023-01-19T06:31:54.641Z,3.40
2023-01-19T06:34:21.940Z,3.40
2023-01-19T06:36:50.694Z,3.40
2023-01-19T06:39:17.970Z,3.40
2023-01-19T06:41:45.520Z,3.30
2023-01-19T06:44:12.793Z,3.30
2023-01-19T06:46:40.285Z,3.20
2023-01-19T06:49:08.095Z,3.10
2023-01-19T06:51:35.720Z,3.00
2023-01-19T06:54:03.093Z,2.90
2023-01-19T06:56:30.531Z,2.90
2023-01-19T06:58:58.115Z,2.90
2023-01-19T07:01:26.906Z,2.80
2023-01-19T07:03:54.572Z,2.80
2023-01-19T07:06:22.175Z,2.80
2023-01-19T07:08:49.367Z,2.80
2023-01-19T07:11:25.713Z,2.80
2023-01-19T07:13:58.015Z,2.80
2023-01-19T07:16:25.579Z,2.70
2023-01-19T07:18:52.913Z,2.60
2023-01-19T07:21:20.473Z,2.50
2023-01-19T07:23:51.888Z,2.60
2023-01-19T07:26:21.389Z,2.50
2023-01-19T07:28:49.761Z,2.60
2023-01-19T07:31:18.338Z,2.50
2023-01-19T07:33:46.769Z,2.60
2023-01-19T07:36:15.354Z,2.80
2023-01-19T07:38:42.526Z,2.80
2023-01-19T07:41:10.628Z,2.70
2023-01-19T07:43:37.935Z,2.70
2023-01-19T07:46:08.444Z,2.60
2023-01-19T07:48:35.802Z,2.60
2023-01-19T07:51:05.759Z,2.60
2023-01-19T07:53:33.140Z,2.50
2023-01-19T07:56:00.722Z,2.60
2023-01-19T07:58:28.234Z,2.60
2023-01-19T08:00:55.815Z,2.70
2023-01-19T08:03:23.218Z,2.70
2023-01-19T08:05:52.729Z,2.70
2023-01-19T08:08:20.341Z,2.70
2023-01-19T08:10:51.072Z,2.70
2023-01-19T08:13:18.703Z,2.80
2023-01-19T08:15:50.524Z,2.70
2023-01-19T08:18:18.239Z,2.60
2023-01-19T08:20:46.112Z,2.50
2023-01-19T08:23:13.253Z,2.40
2023-01-19T08:25:46.539Z,2.40
2023-01-19T08:28:16.180Z,2.40
2023-01-19T08:30:45.013Z,2.50
2023-01-19T08:33:13.345Z,2.50
2023-01-19T08:35:43.167Z,2.50
2023-01-19T08:38:10.895Z,2.40
2023-01-19T08:40:40.607Z,2.50
2023-01-19T08:43:16.582Z,2.40
2023-01-19T08:45:48.218Z,2.30
2023-01-19T08:48:16.994Z,2.30
2023-01-19T08:50:47.130Z,2.30
2023-01-19T08:53:14.738Z,2.20
2023-01-19T08:55:42.775Z,2.10
2023-01-19T08:58:10.170Z,2.10
2023-01-19T09:00:39.323Z,2.30
2023-01-19T09:03:09.621Z,2.30
2023-01-19T09:05:38.708Z,2.40
2023-01-19T09:08:09.216Z,2.50
2023-01-19T09:10:38.082Z,2.60
2023-01-19T09:13:08.295Z,2.60
2023-01-19T09:15:37.692Z,2.70
2023-01-19T09:18:07.433Z,2.60
2023-01-19T09:20:36.225Z,2.70
2023-01-19T09:23:03.892Z,2.50
2023-01-19T09:25:32.700Z,2.50
2023-01-19T09:28:00.840Z,2.60
2023-01-19T09:30:28.546Z,2.70
2023-01-19T09:32:55.685Z,2.80
2023-01-19T09:35:23.076Z,2.90
2023-01-19T09:37:50.390Z,3.00
2023-01-19T09:40:20.603Z,3.00
2023-01-19T09:42:56.260Z,3.00
2023-01-19T09:45:39.756Z,2.70
2023-01-19T09:48:33.522Z,2.60
2023-01-19T09:51:07.672Z,2.60
2023-01-19T09:54:04.595Z,2.50
2023-01-19T09:56:33.013Z,2.50
2023-01-19T09:59:01.608Z,2.60
2023-01-19T10:01:46.848Z,2.50
2023-01-19T10:04:41.427Z,2.50
2023-01-19T10:07:08.936Z,2.40
2023-01-19T10:10:13.193Z,2.40
2023-01-19T10:13:17.956Z,2.30
2023-01-19T10:16:09.692Z,2.50
2023-01-19T10:18:48.590Z,2.60
2023-01-19T10:21:37.851Z,2.60
2023-01-19T10:24:16.213Z,2.40
2023-01-19T10:26:48.696Z,2.40
2023-01-19T10:29:21.655Z,2.40
2023-01-19T10:31:51.855Z,2.40
2023-01-19T10:34:23.083Z,2.40
2023-01-19T10:36:57.647Z,2.40
2023-01-19T10:39:25.106Z,2.40
2023-01-19T10:41:53.845Z,2.40
2023-01-19T10:44:27.011Z,2.60
2023-01-19T10:46:57.466Z,2.60
2023-01-19T10:49:37.994Z,2.60
2023-01-19T10:52:07.588Z,2.80
2023-01-19T10:54:37.484Z,2.90
2023-01-19T10:57:08.036Z,2.90
2023-01-19T10:59:37.169Z,3.10
2023-01-19T11:02:26.601Z,2.90
2023-01-19T11:04:55.798Z,2.90
2023-01-19T11:07:25.780Z,2.90
2023-01-19T11:10:17.789Z,2.90
2023-01-19T11:13:12.604Z,2.90
2023-01-19T11:15:55.188Z,2.90
2023-01-19T11:18:31.663Z,2.90
2023-01-19T11:21:06.444Z,2.90
2023-01-19T11:23:35.003Z,3.00
2023-01-19T11:26:05.572Z,3.20
2023-01-19T11:28:40.474Z,3.20
2023-01-19T11:31:11.621Z,3.20
2023-01-19T11:33:50.574Z,3.30
2023-01-19T11:36:24.301Z,3.40
2023-01-19T11:38:57.020Z,3.50
2023-01-19T11:41:33.598Z,3.60
2023-01-19T11:44:23.716Z,3.60
2023-01-19T11:46:56.626Z,3.60
2023-01-19T11:49:46.868Z,3.50
2023-01-19T11:52:34.729Z,3.40
2023-01-19T11:55:33.282Z,3.50
2023-01-19T11:58:02.708Z,3.50
2023-01-19T12:00:45.535Z,3.30
2023-01-19T12:03:21.308Z,3.40
2023-01-19T12:05:53.173Z,3.40
2023-01-19T12:08:30.088Z,3.20
2023-01-19T12:10:59.942Z,3.30
2023-01-19T12:13:30.347Z,3.40
2023-01-19T12:16:13.009Z,3.40
2023-01-19T12:18:46.067Z,3.40
2023-01-19T12:21:13.674Z,3.40
2023-01-19T12:23:53.582Z,3.30
2023-01-19T12:26:22.979Z,3.40
2023-01-19T12:28:52.556Z,3.40
2023-01-19T12:31:22.092Z,3.40
2023-01-19T12:33:50.469Z,3.40
2023-01-19T12:36:26.751Z,3.60
2023-01-19T12:38:55.167Z,3.40
2023-01-19T12:41:47.248Z,3.20
2023-01-19T12:44:21.449Z,3.20
2023-01-19T12:46:50.213Z,3.10
2023-01-19T12:49:22.573Z,2.90
2023-01-19T12:51:52.056Z,2.80
2023-01-19T12:54:29.856Z,2.90
2023-01-19T12:57:02.204Z,2.90
2023-01-19T12:59:34.781Z,2.80
2023-01-19T13:02:27.936Z,2.80
2023-01-19T13:05:24.685Z,2.70
2023-01-19T13:08:07.822Z,2.70
2023-01-19T13:11:00.092Z,2.80
2023-01-19T13:13:38.244Z,2.80
2023-01-19T13:16:21.234Z,2.90
2023-01-19T13:19:15.400Z,2.80
2023-01-19T13:21:48.462Z,2.90
2023-01-19T13:24:19.107Z,3.00
2023-01-19T13:26:49.369Z,3.00
2023-01-19T13:29:39.797Z,2.90
2023-01-19T13:32:16.003Z,2.80
2023-01-19T13:34:49.571Z,2.60
2023-01-19T13:37:39.382Z,2.50
2023-01-19T13:40:07.648Z,2.50
2023-01-19T13:42:40.859Z,2.50
2023-01-19T13:45:34.508Z,2.50
2023-01-19T13:48:06.493Z,2.50
2023-01-19T13:50:37.346Z,2.50
2023-01-19T13:53:20.761Z,2.70
2023-01-19T13:55:48.175Z,2.70
2023-01-19T13:58:26.045Z,2.50
2023-01-19T14:00:53.213Z,2.50
2023-01-19T14:03:23.722Z,2.40
2023-01-19T14:05:53.435Z,2.40
2023-01-19T14:08:22.324Z,2.40
2023-01-19T14:10:56.315Z,2.30
2023-01-19T14:13:26.329Z,2.20
2023-01-19T14:15:56.509Z,2.30
2023-01-19T14:18:26.970Z,2.40
2023-01-19T14:21:14.259Z,2.50
2023-01-19T14:23:50.058Z,2.60
2023-01-19T14:26:43.634Z,2.60
2023-01-19T14:29:33.514Z,2.40
2023-01-19T14:32:00.670Z,2.40
2023-01-19T14:34:42.112Z,2.60
2023-01-19T14:37:28.271Z,2.60
2023-01-19T14:39:57.620Z,2.60
2023-01-19T14:42:37.873Z,2.60
2023-01-19T14:45:16.291Z,2.50
2023-01-19T14:47:45.468Z,2.50
2023-01-19T14:50:19.609Z,2.50
2023-01-19T14:53:08.333Z,2.40
2023-01-19T14:55:44.211Z,2.40
2023-01-19T14:58:13.793Z,2.50
2023-01-19T15:00:42.718Z,2.60
2023-01-19T15:03:10.242Z,2.60
2023-01-19T15:05:39.837Z,2.60
2023-01-19T15:08:07.874Z,2.60
2023-01-19T15:10:36.420Z,2.60
2023-01-19T15:13:04.881Z,2.60
2023-01-19T15:15:34.387Z,2.60
2023-01-19T15:18:04.400Z,2.50
2023-01-19T15:20:31.957Z,2.50
2023-01-19T15:22:59.166Z,2.40
2023-01-19T15:25:26.961Z,2.40
2023-01-19T15:27:58.446Z,2.50
2023-01-19T15:30:30.806Z,2.60
2023-01-19T15:32:58.960Z,2.50
2023-01-19T15:35:26.622Z,2.40
2023-01-19T15:37:54.372Z,2.40
2023-01-19T15:40:23.226Z,2.50
2023-01-19T15:42:50.851Z,2.40
2023-01-19T15:45:24.460Z,2.30
2023-01-19T15:47:51.972Z,2.30
2023-01-19T15:50:20.184Z,2.30
2023-01-19T15:52:47.406Z,2.40
2023-01-19T15:55:15.965Z,2.50
2023-01-19T15:57:43.434Z,2.50
2023-01-19T16:00:11.361Z,2.40
2023-01-19T16:02:39.418Z,2.40
2023-01-19T16:05:07.727Z,2.20
2023-01-19T16:07:35.240Z,2.20
2023-01-19T16:10:03.057Z,2.20
2023-01-19T16:12:30.304Z,2.30
2023-01-19T16:14:57.870Z,2.30
2023-01-19T16:17:25.040Z,2.30
2023-01-19T16:19:52.187Z,2.30
2023-01-19T16:22:19.652Z,2.30
2023-01-19T16:24:46.828Z,2.10
2023-01-19T16:27:14.260Z,2.10
2023-01-19T16:29:41.479Z,2.00
2023-01-19T16:32:08.992Z,2.00
2023-01-19T16:34:36.327Z,2.00
2023-01-19T16:37:03.789Z,2.00
2023-01-19T16:39:30.941Z,2.00
2023-01-19T16:41:58.417Z,1.90
2023-01-19T16:44:25.939Z,2.00
2023-01-19T16:46:54.377Z,2.00
2023-01-19T16:49:28.372Z,2.00
2023-01-19T16:51:58.369Z,2.00
2023-01-19T16:54:26.779Z,2.00
2023-01-19T16:56:55.897Z,1.90
2023-01-19T16:59:23.561Z,1.90
2023-01-19T17:01:52.029Z,1.90
2023-01-19T17:04:21.356Z,2.00
2023-01-19T17:06:49.905Z,2.10
2023-01-19T17:09:17.685Z,1.90
2023-01-19T17:11:46.018Z,1.90
2023-01-19T17:14:15.768Z,2.00
2023-01-19T17:16:44.145Z,2.10
2023-01-19T17:19:15.693Z,2.00
2023-01-19T17:21:48.833Z,1.90
2023-01-19T17:24:17.162Z,2.00
2023-01-19T17:26:46.026Z,1.90
2023-01-19T17:29:13.494Z,1.90
2023-01-19T17:31:41.198Z,1.90
2023-01-19T17:34:09.794Z,2.00
2023-01-19T17:36:38.001Z,2.10
2023-01-19T17:39:08.224Z,1.90
2023-01-19T17:41:36.204Z,1.90
2023-01-19T17:44:05.438Z,1.80
2023-01-19T17:46:36.413Z,1.80
2023-01-19T17:49:05.922Z,1.80
2023-01-19T17:51:33.742Z,1.70
2023-01-19T17:54:01.155Z,1.70
2023-01-19T17:56:32.244Z,1.70
2023-01-19T17:58:59.817Z,1.80
2023-01-19T18:01:31.882Z,1.80
2023-01-19T18:04:00.981Z,1.90
2023-01-19T18:06:28.537Z,1.90
2023-01-19T18:08:57.375Z,1.70
2023-01-19T18:11:25.490Z,1.70
2023-01-19T18:13:53.336Z,1.80
2023-01-19T18:16:26.889Z,1.90
2023-01-19T18:18:56.073Z,2.00
2023-01-19T18:21:27.553Z,2.00
2023-01-19T18:24:00.639Z,2.00
2023-01-19T18:26:29.144Z,1.90
2023-01-19T18:28:57.385Z,1.80
2023-01-19T18:31:26.173Z,1.70
2023-01-19T18:33:53.720Z,1.80
2023-01-19T18:36:21.396Z,1.80
2023-01-19T18:38:49.588Z,1.70
2023-01-19T18:41:19.040Z,1.80
2023-01-19T18:43:46.887Z,1.80
2023-01-19T18:46:15.117Z,1.80
2023-01-19T18:48:42.525Z,1.90
2023-01-19T18:51:14.509Z,1.90
2023-01-19T18:53:42.180Z,2.00
2023-01-19T18:56:12.809Z,2.00
2023-01-19T18:58:40.424Z,2.00
2023-01-19T19:01:38.124Z,2.00
2023-01-19T19:04:05.755Z,2.00
2023-01-19T19:06:34.217Z,2.00
2023-01-19T19:09:01.464Z,2.10
2023-01-19T19:11:29.045Z,2.00
2023-01-19T19:13:59.548Z,2.00
2023-01-19T19:16:28.926Z,2.10
2023-01-19T19:18:56.329Z,2.10
2023-01-19T19:21:25.391Z,2.10
2023-01-19T19:23:55.486Z,2.00
2023-01-19T19:26:24.125Z,2.00
2023-01-19T19:28:51.372Z,1.90
2023-01-19T19:31:21.205Z,1.90
2023-01-19T19:33:49.113Z,1.90
2023-01-19T19:36:17.171Z,2.00
2023-01-19T19:38:47.683Z,2.10
2023-01-19T19:41:22.116Z,2.20
2023-01-19T19:43:50.131Z,2.10
2023-01-19T19:46:20.153Z,2.00
2023-01-19T19:48:48.748Z,1.80
2023-01-19T19:51:22.676Z,1.90
2023-01-19T19:53:51.872Z,1.80
2023-01-19T19:56:22.619Z,1.80
2023-01-19T19:58:51.928Z,1.90
2023-01-19T20:01:23.994Z,1.80
2023-01-19T20:03:52.458Z,1.90
2023-01-19T20:06:22.111Z,1.90
2023-01-19T20:08:51.031Z,1.90
2023-01-19T20:11:23.486Z,1.90
2023-01-19T20:13:50.881Z,2.00
2023-01-19T20:16:20.691Z,2.00
2023-01-19T20:18:54.308Z,1.90
2023-01-19T20:21:25.517Z,2.00
2023-01-19T20:23:53.702Z,2.10
2023-01-19T20:26:25.366Z,2.10
2023-01-19T20:28:53.912Z,1.90
2023-01-19T20:31:30.569Z,2.00
2023-01-19T20:33:59.772Z,1.90
2023-01-19T20:36:28.941Z,1.90
2023-01-19T20:38:57.431Z,1.80
2023-01-19T20:41:25.705Z,1.90
2023-01-19T20:43:53.243Z,1.90
2023-01-19T20:46:21.020Z,2.00
2023-01-19T20:48:52.885Z,2.00
2023-01-19T20:51:20.733Z,1.90
2023-01-19T20:53:48.404Z,2.00
2023-01-19T20:56:16.296Z,2.00
2023-01-19T20:58:43.834Z,2.10
2023-01-19T21:01:13.913Z,2.00
2023-01-19T21:03:41.816Z,1.80
2023-01-19T21:06:10.030Z,1.80
2023-01-19T21:08:38.190Z,1.90
2023-01-19T21:11:06.486Z,1.90
2023-01-19T21:13:34.417Z,2.10
2023-01-19T21:16:02.366Z,2.00
2023-01-19T21:18:29.676Z,1.90
2023-01-19T21:20:57.796Z,2.00
2023-01-19T21:23:27.344Z,1.90
2023-01-19T21:25:57.304Z,1.80
2023-01-19T21:28:25.754Z,1.80
2023-01-19T21:30:54.878Z,1.80
2023-01-19T21:33:23.052Z,1.80
2023-01-19T21:35:55.483Z,1.70
2023-01-19T21:38:23.910Z,1.60
2023-01-19T21:40:51.471Z,1.60
2023-01-19T21:43:20.048Z,1.60
2023-01-19T21:45:48.872Z,1.50
2023-01-19T21:48:17.249Z,1.60
2023-01-19T21:50:45.021Z,1.60
2023-01-19T21:53:12.416Z,1.60
2023-01-19T21:55:44.631Z,1.50
2023-01-19T21:58:11.800Z,1.50
2023-01-19T22:00:39.370Z,1.50
2023-01-19T22:03:06.579Z,1.50
2023-01-19T22:05:36.780Z,1.60
2023-01-19T22:08:06.338Z,1.70
2023-01-19T22:10:37.816Z,1.70
2023-01-19T22:13:06.766Z,1.80
2023-01-19T22:15:34.414Z,1.70
2023-01-19T22:18:01.738Z,1.60
2023-01-19T22:20:29.314Z,1.60
2023-01-19T22:22:57.241Z,1.60
2023-01-19T22:25:27.583Z,1.60
2023-01-19T22:27:55.810Z,1.60
2023-01-19T22:30:23.618Z,1.60
2023-01-19T22:32:50.855Z,1.60
2023-01-19T22:35:18.453Z,1.60
2023-01-19T22:37:45.575Z,1.60
2023-01-19T22:40:13.224Z,1.60
2023-01-19T22:42:40.454Z,1.60
2023-01-19T22:45:08.539Z,1.50
2023-01-19T22:47:38.779Z,1.50
2023-01-19T22:50:06.891Z,1.50
2023-01-19T22:52:34.116Z,1.40
2023-01-19T22:55:01.492Z,1.40
2023-01-19T22:57:34.309Z,1.40
2023-01-19T23:00:02.098Z,1.40
2023-01-19T23:02:29.293Z,1.30
2023-01-19T23:04:56.782Z,1.30
2023-01-19T23:07:24.095Z,1.40
2023-01-19T23:09:51.535Z,1.40
2023-01-19T23:12:18.734Z,1.30
2023-01-19T23:14:46.170Z,1.30
2023-01-19T23:17:13.312Z,1.30
2023-01-19T23:19:40.749Z,1.30
2023-01-19T23:22:08.060Z,1.20
2023-01-19T23:24:35.848Z,1.20
2023-01-19T23:27:03.130Z,1.30
2023-01-19T23:29:30.777Z,1.20
2023-01-19T23:31:58.070Z,1.10
2023-01-19T23:34:25.794Z,1.10
2023-01-19T23:36:52.961Z,1.20
2023-01-19T23:39:22.797Z,1.20
2023-01-19T23:41:50.308Z,1.10
2023-01-19T23:44:18.320Z,1.20
2023-01-19T23:46:46.559Z,1.20
2023-01-19T23:49:14.212Z,1.20
2023-01-19T23:51:41.818Z,1.10
2023-01-19T23:54:09.314Z,1.00
2023-01-19T23:56:38.268Z,1.00
2023-01-19T23:59:08.644Z,1.10
